Marie, Mississippi
Current Conditions -  °F | °C
As of 3:53 PM on Wednesday 22 Oct 2014 (Local Time) from KGLH Reporting Station
Clear Clear  
Wind Chill: 73°   Ceiling: Unl
Heat Index: 73°   Visibility: 10mi
Dew Point: 42°   Wind: 13mph
Humidity: 33%   Direction: 50°NE
Pressure: 30.13"   Gusts: NA
Location:  33.4825°N, 90.6856°W
Report Text: KGLH 222053Z AUTO 05011KT 10SM CLR 23/06 A3013 RMK AO2 SLP208 T02280056 56016
Loading
Personal Weather Stations






























Interactive Weather Map
Tropical Storm Tracking
New forecast layout! Learn more

10-Day Weather Forecast

Advertisements
Track Severe Weather on mobile